Time;durP1;ratioP1;P1;durP2;ratioP2;P2;SDS_P1;SDS_P2;PMS_P1;PMS_P2;Temp;Humidity;BMP_temperature;BMP_pressure;BME280_temperature;BME280_humidity;BME280_pressure;Samples;Min_cycle;Max_cycle;Signal;HPM_P1;HPM_P2
2021/01/16 00:09:21;;;;;;;3.35;2.03;;;21.40;45.10;;;;;;20895845;28;20079;-15
2021/01/16 00:19:21;;;;;;;2.95;1.70;;;21.20;45.00;;;;;;20901085;28;20029;-15
2021/01/16 00:29:22;;;;;;;4.30;2.20;;;21.00;45.00;;;;;;20908287;28;20029;-15
2021/01/16 00:39:22;;;;;;;3.90;1.90;;;21.00;44.60;;;;;;20898937;28;20025;-15
2021/01/16 00:49:23;;;;;;;7.00;2.40;;;20.90;44.80;;;;;;20904904;28;20484;-15
2021/01/16 00:59:23;;;;;;;4.35;1.70;;;20.70;45.30;;;;;;20906345;28;20364;-15
2021/01/16 01:09:24;;;;;;;5.78;2.70;;;20.50;45.50;;;;;;20897312;28;20116;-15
2021/01/16 01:19:24;;;;;;;4.15;1.67;;;20.40;45.30;;;;;;20904386;28;20106;-15
2021/01/16 01:29:25;;;;;;;3.53;1.10;;;20.40;45.10;;;;;;20904325;28;20049;-15
2021/01/16 01:39:25;;;;;;;2.75;1.38;;;20.30;45.00;;;;;;20905126;28;20025;-15
2021/01/16 01:49:26;;;;;;;3.00;1.55;;;20.30;44.20;;;;;;20904643;28;20029;-15
2021/01/16 01:59:33;;;;;;;2.50;1.30;;;20.20;44.20;;;;;;20905050;28;20049;-15
2021/01/16 02:09:33;;;;;;;1.38;0.80;;;20.10;44.10;;;;;;20903800;28;20057;-14
2021/01/16 02:19:52;;;;;;;2.45;1.17;;;20.00;43.90;;;;;;20894632;28;20032;-14
2021/01/16 02:29:53;;;;;;;3.70;1.40;;;20.00;44.10;;;;;;20901315;28;20032;-15
2021/01/16 02:40:05;;;;;;;4.03;1.60;;;20.00;43.50;;;;;;20909974;28;20457;-15
2021/01/16 02:50:07;;;;;;;3.88;1.02;;;19.90;43.80;;;;;;20887023;28;20033;-15
2021/01/16 03:00:27;;;;;;;3.85;1.42;;;19.80;43.70;;;;;;20874527;28;20500;-15
2021/01/16 03:10:31;;;;;;;2.72;0.93;;;19.80;43.50;;;;;;20876206;28;20057;-15
2021/01/16 03:20:31;;;;;;;1.85;1.05;;;19.70;43.70;;;;;;20872734;28;20047;-15
2021/01/16 03:30:32;;;;;;;2.10;1.05;;;19.60;43.60;;;;;;20873260;28;20049;-14
2021/01/16 03:40:32;;;;;;;2.38;1.25;;;19.60;43.60;;;;;;20863706;28;20549;-14
2021/01/16 03:50:33;;;;;;;3.45;1.05;;;19.50;43.70;;;;;;20880073;28;20060;-14
2021/01/16 04:00:33;;;;;;;1.77;1.10;;;19.60;43.20;;;;;;20875921;28;20106;-14
2021/01/16 04:10:34;;;;;;;1.30;0.80;;;19.50;43.50;;;;;;20859361;28;20032;-15
2021/01/16 04:20:34;;;;;;;2.08;1.00;;;19.50;43.30;;;;;;20870894;28;20025;-14
2021/01/16 04:30:36;;;;;;;2.20;1.10;;;19.30;43.40;;;;;;20870624;28;20020;-14
2021/01/16 04:40:36;;;;;;;1.55;0.80;;;19.30;43.20;;;;;;20865387;28;20395;-15
2021/01/16 04:50:39;;;;;;;2.88;1.17;;;19.30;43.10;;;;;;20857321;28;20074;-14
2021/01/16 05:00:42;;;;;;;3.45;1.02;;;19.20;43.10;;;;;;20861982;28;20026;-15
2021/01/16 05:10:43;;;;;;;1.83;1.40;;;19.20;43.20;;;;;;20890430;28;20079;-15
2021/01/16 05:20:45;;;;;;;3.58;1.10;;;19.20;43.20;;;;;;20901020;28;20451;-15
2021/01/16 05:30:55;;;;;;;2.28;1.00;;;19.10;43.00;;;;;;20903474;28;20025;-15
2021/01/16 05:40:58;;;;;;;1.75;0.90;;;19.10;42.90;;;;;;20901422;28;20068;-15
2021/01/16 05:51:02;;;;;;;1.75;0.93;;;19.00;42.80;;;;;;20902510;28;20503;-15
2021/01/16 06:01:07;;;;;;;1.52;1.00;;;19.00;42.70;;;;;;20902109;28;20057;-14
2021/01/16 06:11:08;;;;;;;2.72;1.05;;;18.90;42.80;;;;;;20898716;28;20029;-15
2021/01/16 06:21:10;;;;;;;3.08;1.00;;;18.90;42.90;;;;;;20918194;28;20445;-14
2021/01/16 06:31:29;;;;;;;1.45;0.93;;;18.80;42.50;;;;;;20918303;28;20025;-14
2021/01/16 06:41:44;;;;;;;1.50;0.90;;;18.80;43.20;;;;;;20917035;28;20677;-15
2021/01/16 06:51:45;;;;;;;2.50;1.45;;;18.80;42.70;;;;;;20897462;28;20028;-14
2021/01/16 07:01:49;;;;;;;1.43;0.90;;;18.70;42.50;;;;;;20914763;28;20035;-15
2021/01/16 07:11:54;;;;;;;1.92;1.20;;;18.70;42.50;;;;;;20914069;28;20439;-14
2021/01/16 07:21:55;;;;;;;2.38;1.15;;;18.70;42.30;;;;;;20905544;28;20021;-15
2021/01/16 07:31:57;;;;;;;1.25;0.55;;;19.00;41.90;;;;;;20912418;28;20388;-14
2021/01/16 07:42:02;;;;;;;1.75;0.90;;;19.50;40.40;;;;;;20881519;28;20026;-14
2021/01/16 07:52:07;;;;;;;2.70;0.93;;;20.10;38.60;;;;;;20860406;28;20454;-15
2021/01/16 08:02:19;;;;;;;2.10;0.80;;;20.60;37.50;;;;;;20867168;28;20112;-15
2021/01/16 08:12:27;;;;;;;1.90;0.90;;;21.10;36.60;;;;;;20844018;28;20037;-15
2021/01/16 08:22:42;;;;;;;2.87;2.20;;;21.50;35.90;;;;;;20834049;28;20040;-15
2021/01/16 08:33:04;;;;;;;3.75;1.35;;;21.90;35.30;;;;;;20840212;28;20428;-14
2021/01/16 08:43:05;;;;;;;4.30;1.10;;;22.30;34.80;;;;;;20869084;28;20025;-15
2021/01/16 08:53:21;;;;;;;4.07;1.20;;;22.50;34.30;;;;;;20878372;28;20112;-14
2021/01/16 09:03:24;;;;;;;1.20;0.60;;;22.80;34.30;;;;;;20885403;28;20032;-15
2021/01/16 09:13:29;;;;;;;2.63;0.90;;;23.10;34.00;;;;;;20879202;28;20036;-15
2021/01/16 09:23:37;;;;;;;3.65;0.98;;;23.30;33.90;;;;;;20861822;28;20029;-15
2021/01/16 09:33:43;;;;;;;5.10;1.67;;;23.50;33.70;;;;;;20882325;28;20625;-14
2021/01/16 09:43:43;;;;;;;3.40;1.02;;;23.60;33.60;;;;;;20876420;28;20558;-14
2021/01/16 09:53:44;;;;;;;6.47;1.40;;;23.90;33.60;;;;;;20880497;28;20025;-15
2021/01/16 10:03:45;;;;;;;16.67;3.58;;;23.80;32.80;;;;;;20904255;28;20037;-15
2021/01/16 10:13:47;;;;;;;15.98;2.85;;;22.90;29.80;;;;;;20906401;28;20116;-15
2021/01/16 10:23:48;;;;;;;20.80;6.80;;;22.90;30.00;;;;;;20904941;28;20086;-15
2021/01/16 10:33:48;;;;;;;27.13;6.72;;;22.90;32.90;;;;;;20904148;28;20120;-16
2021/01/16 10:43:59;;;;;;;29.00;6.07;;;23.00;33.80;;;;;;20910108;28;20091;-15
2021/01/16 10:54:01;;;;;;;23.75;5.53;;;23.30;34.10;;;;;;20915209;28;20407;-16
2021/01/16 11:04:02;;;;;;;20.92;4.43;;;23.50;33.80;;;;;;20919579;28;20036;-16
2021/01/16 11:14:04;;;;;;;19.88;4.65;;;23.80;33.50;;;;;;20921526;28;20048;-14
2021/01/16 11:24:42;;;;;;;23.30;5.35;;;24.00;33.00;;;;;;20914965;28;20025;-14
2021/01/16 11:35:01;;;;;;;11.20;4.63;;;24.10;33.90;;;;;;20904555;28;20036;-15
2021/01/16 11:45:02;;;;;;;14.57;4.07;;;24.40;33.60;;;;;;20908695;28;20029;-14
2021/01/16 11:55:08;;;;;;;28.10;5.60;;;24.40;33.70;;;;;;20909706;28;20064;-14
2021/01/16 12:05:13;;;;;;;17.40;5.35;;;24.30;33.80;;;;;;20902871;28;20036;-15
2021/01/16 12:15:23;;;;;;;12.48;3.92;;;24.40;33.90;;;;;;20912058;28;20491;-15
2021/01/16 12:25:30;;;;;;;15.50;4.40;;;24.50;33.80;;;;;;20918421;28;20489;-15
2021/01/16 12:35:31;;;;;;;9.73;3.50;;;24.30;34.20;;;;;;20876971;28;20047;-15
2021/01/16 12:45:31;;;;;;;10.37;4.23;;;24.10;34.40;;;;;;20862671;28;20071;-15
2021/01/16 12:55:32;;;;;;;12.40;3.42;;;24.30;34.30;;;;;;20858403;28;20467;-15
2021/01/16 13:05:38;;;;;;;22.23;3.80;;;24.20;34.50;;;;;;20860504;28;20040;-15
2021/01/16 13:15:43;;;;;;;7.93;3.53;;;24.10;34.70;;;;;;20861831;28;20044;-15
2021/01/16 13:25:45;;;;;;;8.40;3.00;;;24.30;34.40;;;;;;20856109;28;20072;-15
2021/01/16 13:35:46;;;;;;;8.43;3.03;;;24.30;34.50;;;;;;20847131;28;20451;-15
2021/01/16 13:45:55;;;;;;;7.18;2.50;;;24.10;34.80;;;;;;20866328;28;20500;-15
2021/01/16 13:55:56;;;;;;;6.75;2.88;;;23.90;35.30;;;;;;20857019;28;20029;-15
2021/01/16 14:05:58;;;;;;;6.40;2.25;;;23.80;35.40;;;;;;20858546;28;20057;-15
2021/01/16 14:16:02;;;;;;;5.93;2.45;;;23.80;35.40;;;;;;20923784;23;20044;-15
2021/01/16 14:26:17;;;;;;;5.43;1.95;;;23.60;35.70;;;;;;20966426;28;20062;-14
2021/01/16 14:36:20;;;;;;;2.83;1.63;;;23.70;35.50;;;;;;20983550;28;20025;-15
2021/01/16 14:46:21;;;;;;;4.18;1.75;;;23.50;35.60;;;;;;20961775;28;20155;-15
2021/01/16 14:56:21;;;;;;;4.07;2.05;;;23.60;35.50;;;;;;20982797;28;20659;-14
2021/01/16 15:06:22;;;;;;;4.80;1.80;;;23.80;35.20;;;;;;20960255;28;20274;-15
2021/01/16 15:16:23;;;;;;;4.07;1.70;;;24.00;35.00;;;;;;20959084;28;20061;-14
2021/01/16 15:26:23;;;;;;;3.28;1.63;;;23.90;35.20;;;;;;20962414;28;20082;-15
2021/01/16 15:36:26;;;;;;;5.10;1.50;;;23.90;35.30;;;;;;20952678;28;20107;-15
2021/01/16 15:46:26;;;;;;;3.97;1.60;;;24.00;35.10;;;;;;20946153;28;20098;-15
2021/01/16 15:56:30;;;;;;;2.85;1.58;;;24.00;35.00;;;;;;20954369;28;20059;-14
2021/01/16 16:06:30;;;;;;;4.10;1.75;;;23.90;35.40;;;;;;20958014;28;20285;-16
2021/01/16 16:16:32;;;;;;;5.07;1.75;;;23.70;35.40;;;;;;20991491;28;20078;-15
2021/01/16 16:26:32;;;;;;;4.60;2.20;;;23.70;35.50;;;;;;21001416;28;20024;-15
2021/01/16 16:36:33;;;;;;;2.45;1.65;;;23.70;35.40;;;;;;21000177;28;20529;-16
2021/01/16 16:46:37;;;;;;;2.93;1.33;;;23.60;35.60;;;;;;20997812;28;20028;-16
2021/01/16 16:56:37;;;;;;;3.30;1.38;;;23.70;35.50;;;;;;20992120;28;20074;-15
2021/01/16 17:06:42;;;;;;;5.25;1.98;;;23.60;35.60;;;;;;20988070;28;20433;-15
2021/01/16 17:16:42;;;;;;;2.88;1.77;;;23.60;35.70;;;;;;20989978;28;20115;-15
2021/01/16 17:26:43;;;;;;;3.50;1.88;;;23.80;35.30;;;;;;20989152;28;20055;-14
2021/01/16 17:36:44;;;;;;;4.07;2.17;;;23.70;35.40;;;;;;20974577;28;20056;-15
2021/01/16 17:46:45;;;;;;;4.95;2.10;;;23.60;35.00;;;;;;20985913;28;20070;-15
2021/01/16 17:56:45;;;;;;;5.53;2.55;;;23.80;35.10;;;;;;20979891;28;20036;-14
2021/01/16 18:06:46;;;;;;;4.75;2.75;;;23.70;35.10;;;;;;20992232;28;20028;-15
2021/01/16 18:16:47;;;;;;;4.07;2.50;;;23.60;35.20;;;;;;21013709;28;20115;-15
2021/01/16 18:26:47;;;;;;;4.75;2.28;;;23.80;35.00;;;;;;21012540;28;20024;-14
2021/01/16 18:36:53;;;;;;;3.97;2.92;;;23.70;35.30;;;;;;21012581;28;20436;-15
2021/01/16 18:46:53;;;;;;;4.63;3.75;;;23.70;34.90;;;;;;21012248;28;20037;-14
2021/01/16 18:56:55;;;;;;;21.67;15.70;;;23.50;35.30;;;;;;21010939;28;20025;-15
2021/01/16 19:06:56;;;;;;;20.50;15.20;;;23.40;35.90;;;;;;21011755;28;20364;-14
2021/01/16 19:16:56;;;;;;;21.70;12.20;;;23.70;36.60;;;;;;21029790;28;20040;-14
2021/01/16 19:26:58;;;;;;;21.58;10.80;;;23.60;36.80;;;;;;20997420;28;20037;-13
2021/01/16 19:36:59;;;;;;;16.98;9.13;;;23.80;37.30;;;;;;20979489;28;20040;-15
2021/01/16 19:47:00;;;;;;;18.63;8.20;;;24.10;36.60;;;;;;20972079;28;20112;-15
2021/01/16 19:57:00;;;;;;;13.73;8.05;;;24.40;35.80;;;;;;20980137;28;20064;-15
2021/01/16 20:07:01;;;;;;;14.95;7.93;;;24.50;35.40;;;;;;20963739;28;20363;-15
2021/01/16 20:17:02;;;;;;;14.43;6.28;;;24.40;35.80;;;;;;20956402;28;20034;-14
2021/01/16 20:27:02;;;;;;;11.45;6.20;;;24.30;35.90;;;;;;20957754;28;20036;-14
2021/01/16 20:37:03;;;;;;;12.77;6.32;;;24.10;35.90;;;;;;20947969;28;20040;-14
2021/01/16 20:47:06;;;;;;;13.18;6.40;;;24.20;35.60;;;;;;20943495;28;20142;-14
2021/01/16 20:57:06;;;;;;;8.40;5.82;;;24.00;36.00;;;;;;20952462;28;20028;-14
2021/01/16 21:07:07;;;;;;;9.98;6.22;;;24.10;36.00;;;;;;20963462;28;20103;-14
2021/01/16 21:17:07;;;;;;;16.02;10.27;;;24.00;36.30;;;;;;20958114;28;20120;-15
2021/01/16 21:27:09;;;;;;;31.60;21.35;;;24.10;36.80;;;;;;20980510;28;20036;-14
2021/01/16 21:37:16;;;;;;;21.75;19.30;;;24.30;37.00;;;;;;20960149;28;20158;-15
2021/01/16 21:47:17;;;;;;;25.97;16.60;;;24.20;37.00;;;;;;20975221;28;20368;-14
2021/01/16 21:57:17;;;;;;;15.77;13.73;;;24.20;37.00;;;;;;20983996;28;20095;-15
2021/01/16 22:07:18;;;;;;;13.80;11.80;;;24.00;37.30;;;;;;20980194;28;20470;-14
2021/01/16 22:17:19;;;;;;;12.40;11.07;;;23.90;37.40;;;;;;20983052;28;20024;-14
2021/01/16 22:27:20;;;;;;;12.88;10.23;;;23.60;37.70;;;;;;20986826;28;20107;-14
2021/01/16 22:37:20;;;;;;;13.10;9.63;;;23.70;37.90;;;;;;20985239;28;20141;-15
2021/01/16 22:47:21;;;;;;;11.43;9.43;;;23.60;38.10;;;;;;20973374;28;20021;-14
2021/01/16 22:57:25;;;;;;;9.65;8.48;;;23.70;37.80;;;;;;20992297;28;20024;-14
2021/01/16 23:07:26;;;;;;;7.95;6.75;;;23.60;38.00;;;;;;20998315;28;20028;-14
2021/01/16 23:17:27;;;;;;;8.77;6.57;;;23.70;37.70;;;;;;21001458;28;20107;-14
2021/01/16 23:27:27;;;;;;;7.17;6.17;;;23.80;37.60;;;;;;21005335;28;20031;-14
2021/01/16 23:37:28;;;;;;;7.43;5.72;;;23.50;38.10;;;;;;21011567;28;20530;-14
2021/01/16 23:47:34;;;;;;;7.50;6.23;;;23.20;38.50;;;;;;21011258;28;20016;-14
2021/01/16 23:57:35;;;;;;;8.15;6.38;;;23.10;39.00;;;;;;20995719;28;20023;-14
